Tiempo atmosférico en la estación meteorológica de Benavente, Zamora (715 m.)



Fecha
DESCASC
Temp. máxima en grados centígrados (hora)
DESCASC
Temp. mínima en grados centígrados (hora)
DESCASC
Temp. media en grados centígrados
DESCASC
Racha de viento máxima en m/sg (hora)
DESCASC
Velocidad máxima media en intervalos de 10 minutos(hora)
DESCASC
Precipitaciones diarias en mm
DESCASC
Precipitaciones de 00:00 a 06:00 en mm
DESCASC
Precipitaciones de 06:00 a 12:00 en mm
DESCASC
Precipitaciones de 12:00 a 18:00 en mm
DESCASC
Precipitaciones de 18:00 a 24:00 en mm
DESCASC
17-10-2019 19.8 (15:20) 12 (03:10) 15.9 11.39 (14:40) 5.28 (17:30) 8 6 0.2 0 1.8
16-10-2019 16.1 (15:40) 9.9 (06:00) 13 10.83 (17:20) 5.56 (14:10) 0.2 0 0 0 0.2
15-10-2019 14 (15:30) 4.8 (07:30) 9.4 10 (15:40) 4.72 (14:10) 7.6 0 0 0.2 7.4
14-10-2019 15 (00:00) 7 (23:59) 11 13.61 (16:40) 6.39 (11:10) 0.4 0 0.2 0.2 0
13-10-2019 22.1 (17:50) 12.8 (00:00) 17.5 12.78 (18:10) 5.83 (12:20) 0 0 0 0 0
12-10-2019 27.7 (16:10) 14.5 (00:00) 21.1 16.94 (17:30) 7.78 (16:40) 0 0 0 0 0
10-10-2019 22.9 (17:30) 6.8 (00:00) 14.8 7.78 (13:30) 3.89 (11:50) 0 0 0 0 0
09-10-2019 21.5 (17:10) 9.4 (00:00) 15.4 11.67 (06:50) 5.56 (06:50) 0 0 0 0 0
08-10-2019 29.4 (16:50) 9.6 (00:00) 19.5 8.61 (17:30) 4.17 (17:30) 0 0 0 0 0
07-10-2019 28.1 (18:00) 10 (00:00) 19.1 5.28 (18:50) 2.78 (00:50) 0 0 0 0 0
06-10-2019 26.1 (18:30) 8.7 (00:00) 17.4 6.39 (22:30) 2.5 (14:40) 0 0 0 0 0
05-10-2019 26 (18:20) 9.9 (07:40) 17.9 6.11 (14:50) 2.78 (15:20) 0 0 0 0 0
04-10-2019 26.1 (17:50) 10.2 (00:00) 18.2 6.67 (15:10) 2.78 (15:20) 0 0 0 0 0
03-10-2019 27.1 (18:30) 7.2 (00:00) 17.2 6.39 (21:20) 3.33 (21:20) 0 0 0 0 0
02-10-2019 22.5 (17:00) 10.5 (00:00) 16.5 8.89 (06:50) 5 (06:50) 0 0 0 0 0
01-10-2019 25.4 (16:40) 12.4 (00:00) 18.9 9.44 (17:20) 4.17 (18:00) 0 0 0 0 0
30-09-2019 28.3 (17:40) 11.4 (00:00) 19.8 7.5 (17:40) 3.61 (17:40) 0 0 0 0 0
29-09-2019 28.4 (16:30) 6.4 (00:00) 17.4 10 (16:40) 5.28 (16:40) 0 0 0 0 0
28-09-2019 25.9 (18:30) 7.5 (00:00) 16.7 5.28 (17:30) 2.78 (23:40) 0 0 0 0 0
27-09-2019 26.2 (16:50) 8.1 (00:00) 17.2 8.61 (19:20) 4.17 (19:20) 0 0 0 0 0
26-09-2019 27.6 (17:40) 8.8 (00:00) 18.2 7.5 (16:20) 2.78 (16:00) 0 0 0 0 0
25-09-2019 23.2 (17:50) 9.3 (00:00) 16.3 8.33 (16:40) 3.33 (16:40) 0 0 0 0 0
24-09-2019 23.6 (17:10) 12.6 (00:00) 18.1 14.17 (15:40) 6.39 (13:30) 0 0 0 0 0
23-09-2019 22.4 (18:30) 9.3 (00:00) 15.8 8.89 (14:50) 3.89 (13:50) 0 0 0 0 0
22-09-2019 21.5 (18:30) 10.9 (00:00) 16.2 11.67 (00:30) 4.44 (15:10) 0.2 0.2 0 0 0
21-09-2019 19.5 (00:00) 15.8 (00:00) 17.7 12.78 (23:30) 6.11 (23:59) 2.2 0 0.4 0.6 1.2
20-09-2019 27.5 (17:20) 14.2 (00:00) 20.8 8.33 (17:50) 4.17 (17:50) 0 0 0 0 0
19-09-2019 26.6 (17:30) 13.9 (00:00) 20.3 6.67 (15:10) 2.22 (15:10) 0 0 0 0 0

Gráficas

Temp. máximas Temp. mínimas Temp. medias Precipitaciones Rachas de viento máximas Velocidades máximas media en intervalos de 10 minutos

Datos horarios

Fecha y hora oficial Temperatura (ºC) Velocidad del viento (km/h) Dirección del viento Racha (km/h) Dirección de racha Precipitación (mm) Presión (hPa) Tendencia (hPa) Humedad (%)
2019-10-18 23:00:00 12.5 6 Sudoeste 21 Sudoeste 0 931 -0.4 74
2019-10-18 22:00:00 13 9 Sudoeste 21 Sudoeste 0 930.8 -0.6 72
2019-10-18 21:00:00 13.3 8 Sudoeste 28 Sudoeste 0 931.4 -0.3 70
2019-10-18 20:00:00 13.8 11 Sudoeste 25 Sudoeste 0 931.4 -0.8 65
2019-10-18 19:00:00 14.5 12 Sudoeste 27 Sudoeste 0 931.4 -1 61
2019-10-18 18:00:00 15.6 9 Oeste 28 Oeste 0 931.7 -1.4 56
2019-10-18 17:00:00 16.2 13 Oeste 28 Oeste 0 932.2 -1.7 51
2019-10-18 16:00:00 16.5 12 Sudoeste 25 Sudoeste 0 932.4 -1.9 50
2019-10-18 15:00:00 16 6 Sudoeste 18 Oeste 0 933.1 -1.5 56
2019-10-18 14:00:00 15.5 7 Sudoeste 15 Sudoeste 0 933.9 -0.7 54
2019-10-18 13:00:00 14.6 4 Oeste 13 Oeste 0 934.3 -0.1 63
2019-10-18 12:00:00 13.4 5 Oeste 14 Sudoeste 0 934.6 0.7 68
2019-10-18 11:00:00 12.1 5 Sur 10 Sur 0 934.6 0.8 82
2019-10-18 10:00:00 11.2 2 Sudeste 6 Sudoeste 0 934.4 0.8 87
2019-10-18 09:00:00 10.9 0 Calma 6 Nordeste 0 933.9 0.7 89
2019-10-18 08:00:00 11.4 0 Calma 11 Oeste 0 933.8 1 86
2019-10-18 07:00:00 12.2 4 Sudoeste 16 Oeste 0 933.6 0.3 81
2019-10-18 06:00:00 12.5 6 Oeste 14 Noroeste 0 933.2 0 82
2019-10-18 05:00:00 13 6 Oeste 14 Oeste 0 932.8 0.1 84
2019-10-18 04:00:00 13.2 2 Oeste 14 Sudoeste 0 933.3 0.1 86
2019-10-18 03:00:00 13.8 6 Sudoeste 13 Oeste 0 933.2 0 86
2019-10-18 02:00:00 14.5 7 Sudoeste 19 Sudoeste 0 932.7 -0.7 86
2019-10-18 01:00:00 14.6 4 Sur 15 Sudoeste 0 933.2 -0.2 90
2019-10-18 00:00:00 15.1 8 Sudoeste 27 Oeste 0.2 933.2 -0.4 90
2019-10-17 23:00:00 14.8 4 Sur 15 Sur 0.4 933.4 -0.1 91
2019-10-17 22:00:00 14.7 5 Sur 14 Sudoeste 1 933.4 0.1 89
2019-10-17 21:00:00 15.2 8 Sudoeste 19 Sudoeste 0.2 933.6 0.5 83
2019-10-17 20:00:00 16.2 8 Sur 18 Sudoeste 0 933.5 0.2 70
2019-10-17 19:00:00 17.8 8 Oeste 28 Sudoeste 0 933.3 0.1 59
2019-10-17 18:00:00 18.1 13 Sudoeste 39 Sudoeste 0 933.1 -0.5 58
2019-10-17 17:00:00 18.3 15 Oeste 40 Sudoeste 0 933.3 -0.8 58
2019-10-17 16:00:00 19.5 17 Oeste 41 Sudoeste 0 933.2 -1 50
2019-10-17 15:00:00 18.8 15 Oeste 41 Oeste 0 933.6 -0.7 52
2019-10-17 14:00:00 18.8 15 Sudoeste 32 Sudoeste 0 934.1 -0.2 56
2019-10-17 13:00:00 18 12 Oeste 30 Sudoeste 0 934.2 0.4 63
2019-10-17 12:00:00 16.8 15 Sudoeste 31 Sudoeste 0 934.3 1.4 71
2019-10-17 11:00:00 14.9 13 Sudoeste 26 Sudoeste 0 934.3 1.5 85
2019-10-17 10:00:00 13.6 9 Sudoeste 20 Sudoeste 0 933.8 1.3 90
2019-10-17 09:00:00 12.8 8 Sudoeste 19 Sudoeste 0 932.9 0.5 91
2019-10-17 08:00:00 12.6 9 Sudoeste 23 Sudoeste 0.2 932.8 0.2 91
2019-10-17 07:00:00 12.4 11 Sudoeste 27 Sudoeste 0 932.5 -0.6 91
2019-10-17 06:00:00 12.3 11 Sudoeste 26 Sudoeste 0 932.4 -1.2 90
2019-10-17 05:00:00 12.2 9 Sudoeste 21 Sudoeste 0 932.6 -1.2 90
2019-10-17 04:00:00 12.1 8 Sur 16 Sudoeste 1.4 933.1 -0.9 91
2019-10-17 03:00:00 12.1 5 Sur 13 Sur 2 933.6 -0.9 90
2019-10-17 02:00:00 12.3 5 Sur 14 Sudoeste 1.8 933.8 -0.7 88
2019-10-17 01:00:00 12.4 5 Sudoeste 21 Sudoeste 0.8 934 -0.3 87
2019-10-17 00:00:00 12.7 8 Sudoeste 29 Sudoeste 0.2 934.5 0.3 85
2019-10-16 23:00:00 13.1 14 Sudoeste 30 Sudoeste 0 934.5 0.6 80
2019-10-16 22:00:00 13.3 9 Sudoeste 25 Sudoeste 0 934.3 0.4 79
2019-10-16 21:00:00 14.4 11 Sudoeste 22 Sudoeste 0 934.2 0.3 69
2019-10-16 20:00:00 15 11 Sudoeste 19 Sudoeste 0 933.9 0.1 64
2019-10-16 19:00:00 15.1 13 Sudoeste 24 Sudoeste 0 933.9 -0.2 63
2019-10-16 18:00:00 15.5 10 Sudoeste 39 Sudoeste 0 933.9 -1 61
2019-10-16 17:00:00 15.7 15 Sudoeste 30 Sudoeste 0 933.8 -1.7 60
2019-10-16 16:00:00 15.5 18 Sudoeste 36 Sudoeste 0 934.1 -1.8 60
2019-10-16 15:00:00 15.1 16 Sudoeste 37 Sudoeste 0 934.9 -1.2 63
2019-10-16 14:00:00 14.8 12 Sudoeste 38 Sudoeste 0 935.5 -0.3 65
2019-10-16 13:00:00 14 19 Sudoeste 37 Sudoeste 0 935.9 -0.1 68
2019-10-16 12:00:00 12.5 14 Sudoeste 34 Sudoeste 0 936.1 0.5 73
2019-10-16 11:00:00 10.8 14 Sudoeste 31 Sudoeste 0 935.8 0.1 80
2019-10-16 10:00:00 10.2 10 Sur 24 Sudoeste 0 936 0.4 82
2019-10-16 09:00:00 10 13 Sudoeste 33 Sudoeste 0 935.6 0.1 84
2019-10-16 08:00:00 10.1 17 Sudoeste 30 Sudoeste 0 935.7 -0.1 84
2019-10-16 07:00:00 9.9 7 Sudoeste 28 Sudoeste 0 935.6 -0.8 84
2019-10-16 06:00:00 9.9 13 Sudoeste 26 Sudoeste 0 935.5 -1.2 84
2019-10-16 05:00:00 10.2 11 Sudoeste 24 Sudoeste 0 935.8 -1 80
2019-10-16 04:00:00 10.5 12 Sudoeste 25 Sudoeste 0 936.4 -0.6 78
2019-10-16 03:00:00 10.6 8 Sudoeste 24 Sudoeste 0 936.7 -0.4 79
2019-10-16 02:00:00 10.8 13 Sudoeste 26 Sudoeste 0 936.8 -0.5 80
2019-10-16 01:00:00 11 9 Sudoeste 22 Sudoeste 0 937 -0.1 77
2019-10-16 00:00:00 11.1 5 Sur 23 Sudoeste 1.8 937.1 -0.1 79
2019-10-15 23:00:00 11.5 13 Sudoeste 24 Sudoeste 3.6 937.3 0.5 76
2019-10-15 22:00:00 12 10 Sudoeste 19 Sudoeste 2 937.1 0.2 71
2019-10-15 21:00:00 12.1 6 Sudoeste 13 Sudoeste 0 937.2 0.3 70
2019-10-15 20:00:00 12.3 4 Sudoeste 15 Sudoeste 0 936.8 -0.2 66
2019-10-15 19:00:00 12.6 6 Oeste 23 Oeste 0 936.9 0.1 65
2019-10-15 18:00:00 12.6 8 Sudoeste 28 Sudoeste 0 936.9 0 64
2019-10-15 17:00:00 12.7 13 Oeste 33 Sudoeste 0 937 -0.1 64
2019-10-15 16:00:00 13.7 14 Sudoeste 36 Sudoeste 0 936.8 -0.5 58
2019-10-15 15:00:00 13.3 15 Sudoeste 33 Sudoeste 0.2 936.9 -0.8 59
2019-10-15 14:00:00 13.5 11 Sudoeste 31 Sudoeste 0 937.1 -0.8 58
2019-10-15 13:00:00 13.2 13 Sudoeste 29 Oeste 0 937.3 -0.2 53
2019-10-15 12:00:00 12.1 12 Sudoeste 28 Sur 0 937.7 1.1 58
2019-10-15 11:00:00 10 9 Sudoeste 18 Sudoeste 0 937.9 1.5 75
2019-10-15 10:00:00 7.7 8 Sudoeste 16 Sudoeste 0 937.5 1.1 83
2019-10-15 09:00:00 5.6 6 Oeste 14 Sudoeste 0 936.6 0.4 87
2019-10-15 08:00:00 5.2 5 Oeste 13 Sudoeste 0 936.4 0.7 89
2019-10-15 07:00:00 5.5 5 Sudoeste 13 Sudoeste 0 936.4 0.9 87
2019-10-15 06:00:00 5.1 2 Sur 6 Sur 0 936.2 0.8 87
2019-10-15 05:00:00 6 3 Sudoeste 15 Oeste 0 935.7 0.4 84
2019-10-15 04:00:00 5.8 6 Sudoeste 15 Sudoeste 0 935.5 0.7 84
2019-10-15 03:00:00 5.2 5 Sur 11 Sur 0 935.4 1.2 86
2019-10-15 02:00:00 6.1 5 Sur 17 Sudoeste 0 935.3 1.8 82
2019-10-15 01:00:00 7.3 9 Sudoeste 26 Sudoeste 0 934.8 2 74
2019-10-15 00:00:00 7 10 Sudoeste 22 Sudoeste 0 934.2 1.7 78
2019-10-14 23:00:00 7.5 10 Sudoeste 19 Sudoeste 0 933.5 2 76
2019-10-14 22:00:00 7.8 10 Sudoeste 23 Oeste 0 932.8 2.6 76
2019-10-14 21:00:00 8.6 5 Oeste 28 Noroeste 0 932.5 3 69
2019-10-14 20:00:00 9.9 14 Oeste 30 Oeste 0 931.5 2.1 72
2019-10-14 19:00:00 11.3 10 Oeste 24 Sudoeste 0 930.2 1.7 70
2019-10-14 18:00:00 11 9 Sudoeste 21 Sudoeste 0 929.5 1.7 78
2019-10-14 17:00:00 9.2 11 Sudoeste 49 Sudoeste 0.2 929.4 0.7 79
2019-10-14 16:00:00 12 15 Sudoeste 48 Sudoeste 0 928.5 -0.4 78
2019-10-14 15:00:00 11.3 15 Sur 36 Sudoeste 0 927.8 -0.8 87
2019-10-14 14:00:00 11.8 15 Sudoeste 32 Sudoeste 0 928.7 0.3 81
2019-10-14 13:00:00 12.2 18 Sudoeste 39 Sudoeste 0 928.9 1.7 78
2019-10-14 12:00:00 12.6 18 Sudoeste 46 Sudoeste 0 928.6 2.5 70
2019-10-14 11:00:00 11.8 14 Sudoeste 35 Sudoeste 0 928.4 2.7 82
2019-10-14 10:00:00 10.4 5 Sudoeste 22 Oeste 0.2 927.2 1.7 84
2019-10-14 09:00:00 10.6 8 Oeste 45 Sudoeste 0 926.1 0.5 84
2019-10-14 08:00:00 13.5 9 Sudoeste 22 Oeste 0 925.7 -0.3 77
2019-10-14 07:00:00 11.7 2 Sur 5 Norte 0 925.5 -1 76
2019-10-14 06:00:00 11.4 0 Calma 5 Sur 0 925.6 -1.9 75
2019-10-14 05:00:00 12.7 3 Sur 11 Oeste 0 926 -2.1 70
2019-10-14 04:00:00 12.3 0 Calma 6 Sudoeste 0 926.5 -2.5 71
2019-10-14 03:00:00 12.9 0 Calma 5 Sur 0 927.5 -1.9 69
2019-10-14 02:00:00 13.6 0 Calma 6 Sur 0 928.1 -1.8 66
2019-10-14 01:00:00 14.7 4 Sur 11 Sur 0 929 -0.7 64
2019-10-14 00:00:00 15 6 Sur 17 Sudoeste 0 929.4 -0.8 64
2019-10-13 23:00:00 16.3 9 Sudoeste 28 Sudoeste 0 929.9 -0.1 58
2019-10-13 22:00:00 17.3 11 Sudoeste 29 Sudoeste 0 929.7 -0.1 53
2019-10-13 21:00:00 17.9 14 Sudoeste 35 Sur 0 930.2 0.4 49
2019-10-13 20:00:00 18.4 12 Sur 38 Sudoeste 0 930 -0.3 49
2019-10-13 19:00:00 20.4 15 Sur 46 Sudoeste 0 929.8 -0.7 43
2019-10-13 18:00:00 22 14 Sur 37 Sur 0 929.8 -1.2 38
2019-10-13 17:00:00 21.4 19 Sudoeste 44 Sudoeste 0 930.3 -1.5 44
2019-10-13 16:00:00 21 13 Sudoeste 34 Sudoeste 0 930.5 -1.8 48
2019-10-13 15:00:00 20.1 18 Sudoeste 35 Sudoeste 0 931 -1.2 50
2019-10-13 14:00:00 19.2 14 Sur 32 Sur 0 931.8 -0.3 53
2019-10-13 13:00:00 17.6 15 Sur 41 Sur 0 932.3 0.3 60
2019-10-13 12:00:00 17.5 18 Sudoeste 36 Sudoeste 0 932.2 0.6 59
2019-10-13 11:00:00 16.3 17 Sudoeste 37 Sur 0 932.1 0.8 65
2019-10-13 10:00:00 14.8 8 Sur 22 Sudoeste 0 932 0.6 71
2019-10-13 09:00:00 13.1 9 Sur 26 Sudoeste 0 931.6 1 78
2019-10-13 08:00:00 13.2 10 Sudoeste 31 Sur 0 931.3 1 76
2019-10-13 07:00:00 14.5 14 Sudoeste 39 Sudoeste 0 931.4 1 73
2019-10-13 06:00:00 14.7 17 Sudoeste 36 Sudoeste 0 930.6 -0.1 76
2019-10-13 05:00:00 15 10 Sudoeste 27 Sur 0 930.3 -0.5 75
2019-10-13 04:00:00 15.6 9 Sudoeste 20 Sudoeste 0 930.4 -0.5 77
2019-10-13 03:00:00 16.1 6 Sur 19 Sudoeste 0 930.7 0.1 74
2019-10-13 02:00:00 17.2 9 Sudoeste 18 Sudoeste 0 930.8 0.7 70
2019-10-13 01:00:00 18 6 Sudoeste 18 Sudoeste 0 930.9 1.2 64
2019-10-13 00:00:00 19.4 8 Sudoeste 24 Sur 0 930.6 0.9 45
2019-10-12 23:00:00 21 13 Sur 35 Sudoeste 0 930.1 0.7 39
2019-10-12 22:00:00 23 14 Sur 35 Sudoeste 0 929.7 0.3 33
2019-10-12 21:00:00 23.2 14 Sur 32 Sur 0 929.7 0.1 32
2019-10-12 20:00:00 24.3 18 Sudoeste 43 Sudoeste 0 929.4 -0.2 30
2019-10-12 19:00:00 25.3 24 Sudoeste 60 Sur 0 929.4 -0.6 27
2019-10-12 18:00:00 26.2 19 Sudoeste 61 Sudoeste 0 929.6 -1.1 25
2019-10-12 17:00:00 27.4 19 Sudoeste 58 Sudoeste 0 929.6 -2.5 24
2019-10-12 16:00:00 27.5 21 Sudoeste 55 Sudoeste 0 930 -2.7 23
2019-10-12 15:00:00 27 18 Sudoeste 44 Sudoeste 0 930.7 -2.7 25
2019-10-12 14:00:00 24.9 17 Sudoeste 32 Sudoeste 0 932.1 -1.4 37
2019-10-12 13:00:00 23.7 17 Sudoeste 33 Sur 0 932.7 -0.7 42
2019-10-12 12:00:00 20.7 8 Sudoeste 19 Sur 0 933.4 0.6 55
2019-10-12 11:00:00 17.6 3 Nordeste 8 Nordeste 0 933.5 1 67
2019-10-12 10:00:00 15 0 Calma 6 Sudeste 0 933.4 0.9 73
2019-10-12 09:00:00 14.7 0 Calma 9 Sur 0 932.8 0.1 72
2019-10-12 08:00:00 16.1 5 Sur 17 Sur 0 932.5 -0.1 67
2019-10-12 07:00:00 15.6 5 Sudoeste 12 Sur 0 932.5 -0.2 67
2019-10-12 06:00:00 16.1 6 Sur 16 Sur 0 932.7 -0.4 64
2019-10-12 05:00:00 16.1 5 Sudoeste 12 Sur 0 932.6 -0.9 66
2019-10-12 04:00:00 15.6 4 Sur 8 Sudoeste 0 932.7 -1.2 70
2019-10-12 03:00:00 14.6 0 Calma 5 Sur 0 933.1 -1 72
2019-10-12 02:00:00 14.6 0 Calma 5 Sudeste 0 933.5 -0.4 72
2019-10-12 01:00:00 15.7 2 Sudoeste 6 Sudoeste 0 933.9 0.3 68
2019-10-12 00:00:00 17.5 0 Calma 7 Sur 0 934.1 0.9 63
2019-10-11 23:00:00 19.8 4 Sur 15 Sudoeste 0 933.9 0.9 55
2019-10-11 22:00:00 21.2 6 Sudoeste 17 Sudoeste 0 933.6 0.4 48
2019-10-11 21:00:00 22.3 7 Sur 18 Sudoeste 0 933.2 -0.3 44
2019-10-11 20:00:00 24 5 Sudoeste 16 Oeste 0 933 -0.8 39
2019-10-11 19:00:00 25.5 8 Sudoeste 17 Sur 0 933.2 -1.3 35
2019-10-11 18:00:00 26 8 Sur 24 Sudoeste 0 933.5 -2.1 31
2019-10-11 17:00:00 27.7 14 Sudoeste 27 Sudoeste 0 933.8 -2.8 27
2019-10-11 16:00:00 27 11 Sur 25 Sur 0 934.5 -3 27
2019-10-11 15:00:00 24.6 6 Sur 21 Sudoeste 0 935.6 -2.4 30
2019-10-11 14:00:00 22.6 4 Sur 14 Sur 0 936.6 -1.8 33
2019-10-11 13:00:00 19.8 3 Sur 11 Sudeste 0 937.5 -0.6 38
2019-10-11 12:00:00 17 3 Este 9 Nordeste 0 938 0.3 45
2019-10-11 11:00:00 13.6 4 Norte 10 Nordeste 0 938.4 0.9 56
2019-10-11 10:00:00 10.4 2 Norte 6 Norte 0 938.1 0.8 66
2019-10-11 09:00:00 7 2 Nordeste 6 Norte 0 937.7 0.3 78
2019-10-11 08:00:00 7.1 0 Calma 16 Noroeste 0 937.5 0.1 77
2019-10-11 07:00:00 7.7 0 Calma 12 Este 0 937.3 -0.2 75
2019-10-11 06:00:00 8.1 5 Norte 12 Norte 0 937.4 -0.3 73
2019-10-11 05:00:00 8.6 6 Norte 12 Este 0 937.4 -0.4 73
2019-10-11 04:00:00 9.1 4 Norte 12 Norte 0 937.5 -0.5 71
2019-10-11 03:00:00 9.9 3 Norte 8 Noroeste 0 937.7 -0.2 68
2019-10-11 02:00:00 10.2 2 Norte 6 Norte 0 937.8 -0.1 67
2019-10-11 01:00:00 12.3 5 Norte 9 Noroeste 0 938 0.4 57
2019-10-11 00:00:00 11.4 3 Norte 6 Norte 0 937.9 0.6 55
2019-10-10 23:00:00 12.7 3 Norte 6 Nordeste 0 937.9 0.9 52
2019-10-10 22:00:00 13.8 2 Nordeste 14 Este 0 937.6 0.6 51
2019-10-10 21:00:00 16 3 Noroeste 5 Noroeste 0 937.3 0.1 40
2019-10-10 20:00:00 18.7 2 Norte 5 Nordeste 0 937 -0.5 35
2019-10-10 19:00:00 22.7 3 Sudeste 13 Sudeste 0 937 -1 24
2019-10-10 18:00:00 22.9 5 Sudeste 14 Nordeste 0 937.2 -1.4 24
2019-10-10 17:00:00 22.4 5 Este 18 Este 0 937.5 -2.1 26
2019-10-10 16:00:00 21.3 6 Este 24 Nordeste 0 938 -2.1 30
2019-10-10 15:00:00 20.4 9 Nordeste 22 Nordeste 0 938.6 -1.9 34
2019-10-10 14:00:00 18.5 10 Nordeste 28 Nordeste 0 939.6 -1.1 41
2019-10-10 13:00:00 17.4 14 Este 25 Nordeste 0 940.1 -0.4 44
2019-10-10 12:00:00 15.5 13 Nordeste 26 Nordeste 0 940.5 0.5 54
2019-10-10 11:00:00 12.4 9 Nordeste 19 Norte 0 940.7 0.8 66
2019-10-10 10:00:00 9.5 7 Norte 18 Norte 0 940.5 0.7 73
2019-10-10 09:00:00 7 5 Norte 16 Nordeste 0 940 0.4 82
2019-10-10 08:00:00 7.5 5 Norte 14 Norte 0 939.9 0.3 81
2019-10-10 07:00:00 7.5 6 Norte 15 Norte 0 939.8 0.2 83
2019-10-10 06:00:00 8.3 4 Norte 16 Norte 0 939.6 -0.1 82
2019-10-10 05:00:00 9.3 8 Norte 16 Norte 0 939.6 -0.3 81
2019-10-10 04:00:00 9.5 6 Norte 13 Norte 0 939.6 -0.3 82
2019-10-10 03:00:00 9.4 6 Norte 13 Nordeste 0 939.7 0.1 80
2019-10-10 02:00:00 10.1 7 Norte 18 Norte 0 939.9 0.7 76
2019-10-10 01:00:00 11.1 8 Nordeste 19 Nordeste 0 939.9 1.6 70
2019-10-10 00:00:00 12.2 8 Nordeste 19 Nordeste 0 939.6 1.8 66
2019-10-09 23:00:00 13.1 8 Nordeste 21 Este 0 939.2 1.7 61
2019-10-09 22:00:00 15.2 6 Norte 18 Nordeste 0 938.3 1.2 46
2019-10-09 21:00:00 15.6 3 Norte 7 Norte 0 937.8 0.7 33
2019-10-09 20:00:00 17.8 3 Norte 8 Este 0 937.5 0.3 31
2019-10-09 19:00:00 20.9 4 Este 14 Este 0 937.1 -0.4 23
2019-10-09 18:00:00 21.4 6 Este 19 Norte 0 937.1 -0.9 24
2019-10-09 17:00:00 21.3 5 Este 20 Nordeste 0 937.2 -1.2 25
2019-10-09 16:00:00 20.6 7 Nordeste 22 Nordeste 0 937.5 -1.5 27
2019-10-09 15:00:00 19.8 12 Nordeste 28 Nordeste 0 938 -1.1 30
2019-10-09 14:00:00 19.1 8 Norte 24 Norte 0 938.4 -0.7 37
2019-10-09 13:00:00 17.7 13 Norte 28 Norte 0 939 0.3 46
2019-10-09 12:00:00 16.3 15 Norte 30 Norte 0 939.1 0.9 40
2019-10-09 11:00:00 14.9 13 Norte 29 Norte 0 939.1 1.1 45
2019-10-09 10:00:00 12.3 14 Norte 26 Noroeste 0 938.7 1.3 61
2019-10-09 09:00:00 9.7 5 Norte 26 Noroeste 0 938.2 1.3 75
2019-10-09 08:00:00 10.4 12 Norte 35 Norte 0 938 1.3 73
2019-10-09 07:00:00 11.6 17 Noroeste 42 Noroeste 0 937.4 1 66
2019-10-09 06:00:00 12.6 9 Nordeste 36 Norte 0 936.9 0.5 72
2019-10-09 05:00:00 13.2 14 Norte 35 Norte 0 936.7 0.5 76
2019-10-09 04:00:00 13.2 4 Nordeste 14 Norte 0 936.4 0 82
2019-10-09 03:00:00 14.2 3 Norte 7 Oeste 0 936.4 0.2 79
2019-10-09 02:00:00 15.6 4 Noroeste 28 Norte 0 936.2 0.3 76
2019-10-09 01:00:00 16.7 11 Noroeste 23 Noroeste 0 936.4 0.9 75
2019-10-09 00:00:00 17.9 11 Noroeste 26 Noroeste 0 936.2 0.7 71
2019-10-08 23:00:00 19 10 Noroeste 22 Noroeste 0 935.9 0.8 67
2019-10-08 22:00:00 20.3 3 Norte 11 Norte 0 935.5 1.1 60
2019-10-08 21:00:00 22 4 Noroeste 26 Noroeste 0 935.5 1.4 51
2019-10-08 20:00:00 24.1 9 Noroeste 18 Oeste 0 935.1 0.8 45
2019-10-08 19:00:00 26.7 8 Oeste 25 Sudoeste 0 934.4 -0.4 36
2019-10-08 18:00:00 28.3 10 Oeste 31 Oeste 0 934.1 -1.5 30
2019-10-08 17:00:00 29.1 11 Sudoeste 22 Sudoeste 0 934.3 -2.1 29
2019-10-08 16:00:00 28 3 Este 10 Sudoeste 0 934.8 -2.3 28
2019-10-08 15:00:00 26.1 3 Noroeste 13 Sur 0 935.6 -2.1 31
2019-10-08 14:00:00 24 5 Sur 15 Sudoeste 0 936.4 -1.6 31
2019-10-08 13:00:00 22.3 4 Sur 10 Sur 0 937.1 -0.6 33
2019-10-08 12:00:00 19.3 5 Noroeste 14 Noroeste 0 937.7 0 42
2019-10-08 11:00:00 16.8 3 Oeste 8 Oeste 0 938 0.5 50
2019-10-08 10:00:00 13.9 4 Nordeste 7 Norte 0 937.7 0.4 64
2019-10-08 09:00:00 10.2 0 Calma 10 Norte 0 937.7 0.4 77
2019-10-08 08:00:00 10.7 4 Norte 15 Noroeste 0 937.5 0 74
2019-10-08 07:00:00 10 2 Norte 6 Nordeste 0 937.3 -0.3 76
2019-10-08 06:00:00 10.3 4 Nordeste 12 Noroeste 0 937.3 -0.8 76
2019-10-08 05:00:00 11.4 4 Noroeste 9 Norte 0 937.5 -0.4 73
2019-10-08 04:00:00 11.4 2 Este 6 Norte 0 937.6 -0.4 70
2019-10-08 03:00:00 12.7 0 Calma 8 Norte 0 938.1 -0.2 65
2019-10-08 02:00:00 13.1 5 Norte 10 Nordeste 0 937.9 -0.2 64
2019-10-08 01:00:00 14.3 4 Norte 8 Norte 0 938 0 56
2019-10-08 00:00:00 14.5 3 Norte 5 Nordeste 0 938.3 0.8 61
2019-10-07 23:00:00 18 3 Sudoeste 8 Sudoeste 0 938.1 0.9 43
2019-10-07 22:00:00 17.8 4 Sudoeste 6 Norte 0 938 0.9 45
2019-10-07 21:00:00 19.9 0 Calma 6 Sur 0 937.5 0.4 39
2019-10-07 20:00:00 24.3 3 Sudeste 11 Sudeste 0 937.2 -0.4 27
2019-10-07 19:00:00 27.1 5 Sudeste 19 Sur 0 937.1 -0.9 22
2019-10-07 18:00:00 27.7 5 Sudeste 14 Sur 0 937.1 -1.4 21
2019-10-07 17:00:00 27.5 4 Sur 14 Sur 0 937.6 -1.5 21
2019-10-07 16:00:00 26.8 4 Sur 13 Sudoeste 0 938 -1.7 22
2019-10-07 15:00:00 24.5 5 Sudoeste 14 Sudoeste 0 938.5 -1.5 26
2019-10-07 14:00:00 22.4 4 Sudoeste 12 Sudeste 0 939.1 -1.2 37
2019-10-07 13:00:00 20.3 4 Sur 12 Sudoeste 0 939.7 -0.5 49
2019-10-07 12:00:00 17.6 3 Sur 9 Nordeste 0 940 0 59
2019-10-07 11:00:00 14.8 3 Norte 12 Nordeste 0 940.3 0.5 70
2019-10-07 10:00:00 12.9 2 Norte 7 Nordeste 0 940.2 0.7 78
2019-10-07 09:00:00 10.2 3 Norte 8 Norte 0 940 0.7 86
2019-10-07 08:00:00 10 4 Norte 10 Norte 0 939.8 0.9 86
2019-10-07 07:00:00 10.3 5 Norte 10 Nordeste 0 939.5 0.5 86
2019-10-07 06:00:00 11.1 6 Nordeste 10 Nordeste 0 939.3 -0.3 85
2019-10-07 05:00:00 11.5 3 Nordeste 8 Norte 0 938.9 -0.6 83
2019-10-07 04:00:00 11.7 2 Norte 5 Nordeste 0 939 -0.3 81
2019-10-07 03:00:00 12.7 0 Calma 13 Sudeste 0 939.6 0 77
2019-10-07 02:00:00 12.7 2 Este 18 Norte 0 939.5 0 67
2019-10-07 01:00:00 14.5 10 Norte 18 Nordeste 0 939.3 0.5 58
2019-10-07 00:00:00 14.6 4 Nordeste 8 Noroeste 0 939.6 1.3 57
2019-10-06 23:00:00 17.4 5 Noroeste 23 Noroeste 0 939.5 1.6 47
2019-10-06 22:00:00 17.5 3 Sudeste 15 Noroeste 0 938.8 1.2 39
2019-10-06 21:00:00 20.4 7 Noroeste 15 Oeste 0 938.3 0.9 27
2019-10-06 20:00:00 22.1 3 Oeste 11 Noroeste 0 937.9 0.1 35
2019-10-06 19:00:00 25.5 6 Oeste 15 Sur 0 937.6 -0.6 26
2019-10-06 18:00:00 25.8 4 Sur 15 Sur 0 937.4 -1.2 29
2019-10-06 17:00:00 25 4 Sur 18 Sur 0 937.8 -1.5 33
2019-10-06 16:00:00 24 4 Sudeste 15 Oeste 0 938.2 -1.6 37
2019-10-06 15:00:00 22.4 6 Sudoeste 18 Sur 0 938.6 -1.2 42
2019-10-06 14:00:00 20.9 6 Sudeste 14 Sudoeste 0 939.3 -0.9 47
2019-10-06 13:00:00 19.8 5 Sur 14 Sur 0 939.8 -0.1 50
2019-10-06 12:00:00 18.2 4 Sudeste 13 Este 0 939.8 0.6 57
2019-10-06 11:00:00 15.3 5 Este 13 Sudeste 0 940.2 2 70
2019-10-06 10:00:00 12.1 4 Nordeste 7 Nordeste 0 939.9 1.6 79
2019-10-06 09:00:00 9.3 3 Norte 6 Norte 0 939.2 1.4 86
2019-10-06 08:00:00 9.4 2 Norte 9 Norte 0 938.2 0.7 84
2019-10-06 07:00:00 9.4 5 Norte 11 Norte 0 938.3 0.9 84
2019-10-06 06:00:00 9.8 5 Norte 8 Nordeste 0 937.8 0.3 83
2019-10-06 05:00:00 9.8 3 Norte 8 Norte 0 937.5 0.5 79
2019-10-06 04:00:00 9.7 4 Norte 11 Nordeste 0 937.4 0.5 79
2019-10-06 03:00:00 11 4 Noroeste 11 Norte 0 937.5 0.4 73
2019-10-06 02:00:00 12.2 5 Norte 12 Norte 0 937 0 69
2019-10-06 01:00:00 12.9 3 Norte 11 Norte 0 936.9 1 67
2019-10-06 00:00:00 14.2 8 Norte 14 Norte 0 937.1 1.7 63
2019-10-05 23:00:00 15.9 0 Calma 12 Nordeste 0 937 1.8 63
2019-10-05 22:00:00 18.2 2 Este 10 Sudoeste 0 935.9 1.5 54
2019-10-05 21:00:00 20.1 8 Sudoeste 17 Sudoeste 0 935.4 1.2 47
2019-10-05 20:00:00 21.8 8 Sudoeste 17 Sur 0 935.2 0.8 37
2019-10-05 19:00:00 25.1 9 Sudoeste 17 Sur 0 934.4 -0.5 30
2019-10-05 18:00:00 25.7 4 Sur 12 Sudeste 0 934.2 -1.3 33
2019-10-05 17:00:00 24.8 5 Sudoeste 15 Sudoeste 0 934.4 -1.9 39
2019-10-05 16:00:00 23.4 7 Sudoeste 19 Sudoeste 0 934.9 -1.9 44
2019-10-05 15:00:00 21.6 4 Sudoeste 22 Sudoeste 0 935.5 -1.6 51
2019-10-05 14:00:00 18.9 3 Sudoeste 10 Sudoeste 0 936.3 -0.6 59
2019-10-05 13:00:00 16.2 3 Este 11 Noroeste 0 936.8 0.3 70
2019-10-05 12:00:00 12.9 5 Norte 12 Este 0 937.1 1 84
2019-10-05 11:00:00 12.6 6 Nordeste 14 Nordeste 0 936.9 1.4 85
2019-10-05 10:00:00 12.2 5 Nordeste 12 Nordeste 0 936.5 1 85
2019-10-05 09:00:00 11.1 3 Nordeste 8 Norte 0 936.1 0.7 87
2019-10-05 08:00:00 10 2 Nordeste 12 Norte 0 935.5 0.1 88
2019-10-05 07:00:00 10.4 7 Noroeste 13 Noroeste 0 935.5 0 88
2019-10-05 06:00:00 11 6 Norte 11 Norte 0 935.4 -0.3 88
2019-10-05 05:00:00 11.4 6 Norte 12 Norte 0 935.4 0 87
2019-10-05 04:00:00 11.6 4 Norte 11 Nordeste 0 935.5 0 83
2019-10-05 03:00:00 13.4 7 Norte 18 Norte 0 935.7 0.4 77
2019-10-05 02:00:00 12.7 5 Norte 10 Noroeste 0 935.4 0 80
2019-10-05 01:00:00 13.8 4 Nordeste 8 Nordeste 0 935.5 0.4 75
2019-10-05 00:00:00 15.9 5 Nordeste 9 Norte 0 935.3 0.7 68
2019-10-04 23:00:00 16.8 3 Norte 9 Sudoeste 0 935.4 1.2 62
2019-10-04 22:00:00 19.5 3 Oeste 13 Oeste 0 935.1 1.5 52
2019-10-04 21:00:00 21 8 Sudoeste 17 Sudoeste 0 934.6 0.9 47
2019-10-04 20:00:00 22.5 7 Sudoeste 22 Sudoeste 0 934.2 0.3 43
2019-10-04 19:00:00 25.3 8 Sudoeste 22 Sudoeste 0 933.6 -1 33
2019-10-04 18:00:00 25.7 4 Sudeste 14 Sudoeste 0 933.7 -1.8 33
2019-10-04 17:00:00 25.3 6 Sur 21 Sur 0 933.9 -2.6 37
2019-10-04 16:00:00 24.4 8 Sur 24 Sur 0 934.6 -2.5 40
2019-10-04 15:00:00 23.2 8 Sur 20 Sur 0 935.5 -1.8 47
2019-10-04 14:00:00 22.4 6 Sudeste 17 Sudeste 0 936.5 -0.8 51
2019-10-04 13:00:00 20.7 5 Sur 11 Este 0 937.1 0.1 56
2019-10-04 12:00:00 18.8 3 Oeste 11 Este 0 937.3 0.6 61
2019-10-04 11:00:00 16.7 5 Nordeste 12 Norte 0 937.3 0.8 66
2019-10-04 10:00:00 14.1 0 Calma 6 Sur 0 937 0.7 76
2019-10-04 09:00:00 10.5 2 Sudoeste 11 Nordeste 0 936.7 0.3 88
2019-10-04 08:00:00 10.6 3 Nordeste 8 Este 0 936.5 -0.1 88
2019-10-04 07:00:00 12.1 2 Sudoeste 8 Norte 0 936.3 -0.5 84
2019-10-04 06:00:00 11.7 4 Norte 8 Sudoeste 0 936.4 -0.7 85
2019-10-04 05:00:00 12.7 0 Calma 10 Oeste 0 936.6 -0.3 82
2019-10-04 04:00:00 14.2 5 Oeste 12 Oeste 0 936.8 -0.6 80
2019-10-04 03:00:00 13.3 2 Sudoeste 6 Sudoeste 0 937.1 -0.3 80
2019-10-04 02:00:00 14 0 Calma 6 Noroeste 0 936.9 -0.4 78
2019-10-04 01:00:00 14.5 4 Norte 7 Nordeste 0 937.4 0.5 75
2019-10-04 00:00:00 16 6 Nordeste 10 Nordeste 0 937.4 1 69
2019-10-03 23:00:00 17.2 5 Nordeste 17 Noroeste 0 937.3 1.5 63
2019-10-03 22:00:00 18.6 8 Noroeste 23 Noroeste 0 936.9 1.4 55
2019-10-03 21:00:00 20.5 8 Noroeste 20 Noroeste 0 936.4 0.6 42
2019-10-03 20:00:00 23.3 2 Sudoeste 13 Sur 0 935.8 -0.4 31
2019-10-03 19:00:00 26.7 6 Sur 14 Sudoeste 0 935.5 -1.2 23
2019-10-03 18:00:00 26.6 7 Sur 19 Sudoeste 0 935.8 -1.4 24
2019-10-03 17:00:00 26.3 4 Sur 19 Sudoeste 0 936.2 -1.8 24
2019-10-03 16:00:00 24.4 7 Sur 19 Sudoeste 0 936.7 -1.7 28
2019-10-03 15:00:00 22.8 5 Sudoeste 17 Oeste 0 937.2 -1.7 34
2019-10-03 14:00:00 21 6 Oeste 14 Oeste 0 938 -0.8 41
2019-10-03 13:00:00 18.5 5 Sur 17 Sudoeste 0 938.4 -0.6 50
2019-10-03 12:00:00 16.3 4 Sudoeste 13 Oeste 0 938.9 0.4 56
2019-10-03 11:00:00 13.5 4 Sudoeste 10 Oeste 0 938.8 0.6 65
2019-10-03 10:00:00 9.9 5 Noroeste 10 Noroeste 0 939 0.7 77
2019-10-03 09:00:00 7.9 4 Noroeste 9 Noroeste 0 938.5 0.4 85
2019-10-03 08:00:00 8 4 Nordeste 10 Noroeste 0 938.2 -0.1 83
2019-10-03 07:00:00 8.3 3 Noroeste 7 Norte 0 938.3 0 85
2019-10-03 06:00:00 9.4 5 Norte 13 Norte 0 938.1 -0.4 84
2019-10-03 05:00:00 9.7 5 Noroeste 9 Noroeste 0 938.3 -0.3 84
2019-10-03 04:00:00 10.3 4 Norte 7 Norte 0 938.3 -0.5 81
2019-10-03 03:00:00 11.1 3 Norte 12 Nordeste 0 938.5 -0.2 78
2019-10-03 02:00:00 11.8 8 Nordeste 18 Este 0 938.6 0.3 75
2019-10-03 01:00:00 12.5 6 Nordeste 13 Nordeste 0 938.8 0.7 70
2019-10-03 00:00:00 11.6 5 Norte 20 Nordeste 0 938.7 0.9 71
2019-10-02 23:00:00 13 3 Norte 11 Sur 0 938.3 0.5 62
2019-10-02 22:00:00 14.2 2 Noroeste 11 Sur 0 938.1 0.7 57
2019-10-02 21:00:00 16.1 0 Calma 14 Sudeste 0 937.8 0.7 49
2019-10-02 20:00:00 19.6 3 Sur 11 Este 0 937.8 0.5 37
2019-10-02 19:00:00 21.6 3 Sudeste 14 Sudeste 0 937.4 -0.2 31
2019-10-02 18:00:00 21.7 5 Este 16 Nordeste 0 937.1 -0.5 31
2019-10-02 17:00:00 22.5 4 Oeste 17 Norte 0 937.3 -0.7 28
2019-10-02 16:00:00 21.2 7 Norte 25 Este 0 937.6 -0.5 32
2019-10-02 15:00:00 20.2 9 Nordeste 25 Nordeste 0 937.6 -0.7 34
2019-10-02 14:00:00 19.8 12 Norte 31 Norte 0 938 0 34
2019-10-02 13:00:00 18.8 9 Norte 24 Nordeste 0 938.1 0.4 37
2019-10-02 12:00:00 17.8 12 Norte 28 Norte 0 938.3 1.3 40
2019-10-02 11:00:00 16.2 13 Noroeste 30 Noroeste 0 938 1.5 47
2019-10-02 10:00:00 13.9 13 Noroeste 31 Noroeste 0 937.7 1.4 57
2019-10-02 09:00:00 11 10 Noroeste 28 Noroeste 0 937 0.8 65
2019-10-02 08:00:00 11 14 Noroeste 32 Noroeste 0 936.5 0.5 65
2019-10-02 07:00:00 11.4 15 Noroeste 32 Noroeste 0 936.3 0.4 63
2019-10-02 06:00:00 11.3 8 Noroeste 31 Noroeste 0 936.2 0.1 66
2019-10-02 05:00:00 10.5 9 Oeste 22 Noroeste 0 936 -0.1 71
2019-10-02 04:00:00 11.1 10 Noroeste 21 Oeste 0 935.9 -0.1 69
2019-10-02 03:00:00 11.8 13 Noroeste 25 Noroeste 0 936.1 0 68
2019-10-02 02:00:00 12.9 12 Noroeste 21 Noroeste 0 936.1 0.4 63
2019-10-02 01:00:00 13.8 11 Noroeste 22 Noroeste 0 936 1 61
2019-10-02 00:00:00 15.1 9 Noroeste 24 Noroeste 0 936.1 2 55
2019-10-01 23:00:00 15.6 5 Sudoeste 17 Noroeste 0 935.7 2.3 54
2019-10-01 22:00:00 17.1 8 Noroeste 18 Oeste 0 935 2.1 49
2019-10-01 21:00:00 18.9 7 Oeste 31 Oeste 0 934.1 1.5 45
2019-10-01 20:00:00 20.8 12 Oeste 28 Oeste 0 933.4 0.7 41
2019-10-01 19:00:00 23.1 12 Oeste 32 Sudoeste 0 932.9 0.2 34
2019-10-01 18:00:00 24.5 15 Oeste 34 Oeste 0 932.6 -0.4 26
2019-10-01 17:00:00 25 13 Oeste 30 Sudoeste 0 932.7 -1 26
2019-10-01 16:00:00 24.9 10 Oeste 26 Oeste 0 932.7 -1.4 29
2019-10-01 15:00:00 23.7 10 Oeste 30 Sudoeste 0 933 -1.6 38
2019-10-01 14:00:00 23.3 10 Oeste 27 Oeste 0 933.7 -0.9 40
2019-10-01 13:00:00 21.4 10 Oeste 27 Oeste 0 934.1 0.6 48
2019-10-01 12:00:00 18.3 5 Oeste 18 Sudoeste 0 934.6 1.1 61
2019-10-01 11:00:00 16.6 9 Oeste 21 Sudoeste 0 934.6 1.8 68
2019-10-01 10:00:00 15.2 7 Sudoeste 15 Oeste 0 933.5 1.1 72
2019-10-01 09:00:00 12.7 0 Calma 11 Noroeste 0 933.5 1.1 79
2019-10-01 08:00:00 13.8 3 Oeste 13 Noroeste 0 932.8 0.5 77
2019-10-01 07:00:00 13 3 Oeste 6 Oeste 0 932.4 0.1 78
2019-10-01 06:00:00 13 2 Norte 10 Oeste 0 932.4 -0.5 78
2019-10-01 05:00:00 14.6 6 Oeste 14 Oeste 0 932.3 -1 75
2019-10-01 04:00:00 14.9 5 Sur 8 Sur 0 932.3 -1.3 76
2019-10-01 03:00:00 15 0 Calma 11 Oeste 0 932.9 -0.6 73
2019-10-01 02:00:00 16.1 2 Oeste 4 Noroeste 0 933.3 0 66
2019-10-01 01:00:00 17.1 3 Sur 13 Oeste 0 933.6 0.3 64
2019-10-01 00:00:00 19.7 7 Oeste 12 Oeste 0 933.5 0.4 54
2019-09-30 23:00:00 20.3 6 Oeste 16 Noroeste 0 933.3 0.3 51
2019-09-30 22:00:00 20.9 7 Oeste 15 Noroeste 0 933.3 0.5 48
2019-09-30 21:00:00 22.6 5 Oeste 17 Oeste 0 933.1 0.2 42
2019-09-30 20:00:00 24.8 7 Oeste 20 Oeste 0 933 -0.5 37
2019-09-30 19:00:00 27.4 9 Oeste 24 Sudoeste 0 932.8 -1.4 30
2019-09-30 18:00:00 28 10 Oeste 27 Sudoeste 0 932.9 -2 30
2019-09-30 17:00:00 27.3 5 Oeste 20 Oeste 0 933.5 -2.4 35
2019-09-30 16:00:00 26.9 5 Sudoeste 25 Sudoeste 0 934.2 -2.4 38
2019-09-30 15:00:00 26.4 8 Sur 21 Sur 0 934.9 -2.3 42
2019-09-30 14:00:00 24.1 6 Sudeste 20 Sudeste 0 935.9 -1.3 50
2019-09-30 13:00:00 22.5 5 Sur 15 Sudoeste 0 936.6 -0.5 55
2019-09-30 12:00:00 20.4 5 Sur 15 Sur 0 937.2 0.4 63
2019-09-30 11:00:00 17.9 3 Este 10 Nordeste 0 937.2 0.7 71
2019-09-30 10:00:00 14.7 3 Este 8 Sudeste 0 937.1 0.6 80
2019-09-30 09:00:00 11.6 0 Calma 5 Sudoeste 0 936.8 0.1 89
2019-09-30 08:00:00 12.5 4 Sur 8 Sur 0 936.5 -0.2 87
2019-09-30 07:00:00 11.9 0 Calma 4 Sur 0 936.5 -0.5 88
2019-09-30 06:00:00 11.9 3 Nordeste 5 Sur 0 936.7 -0.6 86
2019-09-30 05:00:00 13.6 4 Sur 8 Sur 0 936.7 -0.6 87
2019-09-30 04:00:00 13.7 0 Calma 5 Sur 0 937 -0.3 83
2019-09-30 03:00:00 14.9 2 Sur 8 Sur 0 937.3 -0.1 81
2019-09-30 02:00:00 15.5 3 Sudoeste 8 Nordeste 0 937.3 0 79
2019-09-30 01:00:00 16.6 5 Noroeste 13 Noroeste 0 937.3 0.2 75
2019-09-30 00:00:00 17.6 6 Noroeste 13 Noroeste 0 937.4 1.1 74
2019-09-29 23:00:00 18.2 4 Norte 9 Nordeste 0 937.3 1.8 72
2019-09-29 22:00:00 20.4 5 Noroeste 16 Oeste 0 937.1 1.9 60
2019-09-29 21:00:00 22.2 5 Oeste 19 Sudoeste 0 936.3 1.4 47
2019-09-29 20:00:00 24 9 Sudoeste 26 Sudoeste 0 935.5 0.4 40
2019-09-29 19:00:00 26.5 9 Oeste 36 Oeste 0 935.2 -0.1 32
2019-09-29 18:00:00 27.6 13 Oeste 31 Sudoeste 0 934.9 -1 27
2019-09-29 17:00:00 28.3 13 Sudoeste 36 Sudoeste 0 935.1 -1.9 22
2019-09-29 16:00:00 28.2 12 Sudoeste 30 Sudoeste 0 935.3 -2.1 22
2019-09-29 15:00:00 26.9 9 Oeste 17 Oeste 0 935.9 -1.9 24
2019-09-29 14:00:00 24.3 3 Norte 13 Sudoeste 0 937 -0.8 27
2019-09-29 13:00:00 21.3 6 Sudoeste 17 Sur 0 937.4 0 33
2019-09-29 12:00:00 18.1 5 Sudeste 13 Sudeste 0 937.8 1 40
2019-09-29 11:00:00 14.7 3 Nordeste 10 Nordeste 0 937.8 1.3 60
2019-09-29 10:00:00 10.8 3 Norte 9 Norte 0 937.4 1 69
2019-09-29 09:00:00 6.9 0 Calma 4 Sudeste 0 936.8 0.6 81
2019-09-29 08:00:00 6.9 2 Nordeste 7 Norte 0 936.5 0.1 79
2019-09-29 07:00:00 7.7 3 Noroeste 7 Noroeste 0 936.4 -0.4 77
2019-09-29 06:00:00 8.6 2 Sur 6 Este 0 936.2 -0.6 77
2019-09-29 05:00:00 9.4 0 Calma 9 Norte 0 936.4 -0.7 72
2019-09-29 04:00:00 10.5 4 Norte 8 Norte 0 936.8 -0.3 70
2019-09-29 03:00:00 11.8 2 Sur 9 Noroeste 0 936.8 0 63
2019-09-29 02:00:00 11.9 3 Norte 10 Oeste 0 937.1 0.3 58
2019-09-29 01:00:00 15.7 6 Oeste 17 Oeste 0 937.1 0.4 38
2019-09-29 00:00:00 17.5 9 Oeste 19 Noroeste 0 936.8 0.3 35
2019-09-28 23:00:00 17.8 3 Oeste 13 Oeste 0 936.8 0.5 33
2019-09-28 22:00:00 19.2 5 Sudoeste 13 Sudoeste 0 936.7 0.3 28
2019-09-28 21:00:00 20.5 5 Sudoeste 15 Sudoeste 0 936.5 -0.2 33
2019-09-28 20:00:00 22.1 3 Norte 8 Sur 0 936.3 -0.8 36
2019-09-28 19:00:00 25.6 4 Sudeste 13 Sur 0 936.4 -1.4 25
2019-09-28 18:00:00 25.3 5 Sur 19 Sur 0 936.7 -1.9 26
2019-09-28 17:00:00 24.4 4 Sudoeste 15 Sur 0 937.1 -2.4 30
2019-09-28 16:00:00 22.6 5 Sudoeste 16 Sudoeste 0 937.8 -2.3 40
2019-09-28 15:00:00 21.4 6 Sudoeste 16 Oeste 0 938.6 -2 44
2019-09-28 14:00:00 19.7 3 Sudeste 12 Sur 0 939.5 -1.2 51
2019-09-28 13:00:00 17 3 Nordeste 14 Nordeste 0 940.1 0 63
2019-09-28 12:00:00 13.9 5 Norte 15 Norte 0 940.6 1 79
2019-09-28 11:00:00 11.9 6 Norte 13 Norte 0 940.7 1.6 87
2019-09-28 10:00:00 9.6 5 Norte 12 Noroeste 0 940.1 1 92
2019-09-28 09:00:00 8.5 6 Noroeste 14 Norte 0 939.6 0.5 91
2019-09-28 08:00:00 7.9 6 Norte 17 Norte 0 939.1 0.1 87
2019-09-28 07:00:00 7.8 3 Noroeste 11 Nordeste 0 939.1 0 89
2019-09-28 06:00:00 9.2 3 Oeste 6 Oeste 0 939.1 -0.1 87
2019-09-28 05:00:00 8.4 3 Noroeste 6 Noroeste 0 939 -0.2 85
2019-09-28 04:00:00 9.8 0 Calma 3 Este 0 939.1 -0.1 85
2019-09-28 03:00:00 10.3 0 Calma 4 Sudoeste 0 939.2 0.2 81
2019-09-28 02:00:00 11.7 3 Norte 7 Sur 0 939.2 0.2 78
2019-09-28 01:00:00 12.7 3 Sur 5 Sur 0 939.2 0.5 75
2019-09-28 00:00:00 13.6 4 Nordeste 10 Noroeste 0 939 0.9 71
2019-09-27 23:00:00 16.3 6 Oeste 15 Noroeste 0 939 1.5 61
2019-09-27 22:00:00 17.2 8 Noroeste 19 Noroeste 0 938.7 1.6 57
2019-09-27 21:00:00 18.3 3 Noroeste 18 Noroeste 0 938.1 1.5 53
2019-09-27 20:00:00 20.1 10 Norte 31 Norte 0 937.5 0.9 49
2019-09-27 19:00:00 22.3 13 Noroeste 29 Norte 0 937.1 0.1 46
2019-09-27 18:00:00 25.7 12 Oeste 23 Noroeste 0 936.6 -1 36
2019-09-27 17:00:00 26.1 10 Oeste 23 Sudoeste 0 936.6 -1.7 32
2019-09-27 16:00:00 25.2 8 Sudoeste 26 Sudoeste 0 937 -1.6 29
2019-09-27 15:00:00 24 6 Sudoeste 22 Sudoeste 0 937.6 -1.4 31
2019-09-27 14:00:00 22.7 5 Sudoeste 21 Oeste 0 938.3 -0.8 34
2019-09-27 13:00:00 20.7 6 Sudoeste 16 Sudoeste 0 938.6 -0.3 43
2019-09-27 12:00:00 18.6 5 Sur 18 Sur 0 939 0.5 46
2019-09-27 11:00:00 15 6 Sur 15 Sudoeste 0 939.1 0.8 62
2019-09-27 10:00:00 11.7 6 Sudoeste 14 Sudoeste 0 938.9 0.9 68
2019-09-27 09:00:00 8.5 4 Sudoeste 6 Sur 0 938.5 0.5 75
2019-09-27 08:00:00 8.2 2 Oeste 5 Oeste 0 938.3 0.4 82
2019-09-27 07:00:00 8.8 3 Sudoeste 6 Sudeste 0 938 -0.1 82
2019-09-27 06:00:00 9.1 2 Nordeste 6 Norte 0 938 -0.2 83
2019-09-27 05:00:00 10 0 Calma 14 Norte 0 937.9 -0.2 78
2019-09-27 04:00:00 10.6 0 Calma 8 Norte 0 938.1 -0.2 73
2019-09-27 03:00:00 11.5 3 Sudoeste 8 Sur 0 938.2 0.2 67
2019-09-27 02:00:00 11.3 0 Calma 7 Noroeste 0 938.1 0.4 62
2019-09-27 01:00:00 13.1 4 Norte 12 Nordeste 0 938.3 0.9 56
2019-09-27 00:00:00 14.2 2 Oeste 6 Norte 0 938 1.2 61
2019-09-26 23:00:00 15.9 2 Sudoeste 5 Oeste 0 937.7 1.4 55
2019-09-26 22:00:00 19.8 4 Oeste 16 Oeste 0 937.4 1.5 45
2019-09-26 21:00:00 21.2 7 Noroeste 14 Noroeste 0 936.8 1 30
2019-09-26 20:00:00 24 7 Oeste 15 Oeste 0 936.3 0.2 28
2019-09-26 19:00:00 26.9 6 Oeste 16 Sudoeste 0 935.9 -0.6 21
2019-09-26 18:00:00 27.1 7 Sudoeste 16 Oeste 0 935.8 -1 17
2019-09-26 17:00:00 27.1 7 Sudoeste 27 Sudoeste 0 936.1 -1.5 16
2019-09-26 16:00:00 25.9 10 Sudoeste 23 Oeste 0 936.5 -1.5 19
2019-09-26 15:00:00 24.1 7 Oeste 19 Sudoeste 0 936.8 -1.5 29
2019-09-26 14:00:00 21.7 6 Sur 17 Sur 0 937.6 -0.5 40
2019-09-26 13:00:00 19.1 6 Sudoeste 17 Oeste 0 938 0 51
2019-09-26 12:00:00 16.6 6 Sur 19 Sur 0 938.3 0.6 61
2019-09-26 11:00:00 14.7 6 Sur 15 Sur 0 938.1 0.8 71
2019-09-26 10:00:00 12.2 4 Sudeste 9 Sudeste 0 938 1 80
2019-09-26 09:00:00 9.5 3 Nordeste 5 Norte 0 937.7 0.6 90
2019-09-26 08:00:00 8.8 0 Calma 4 Norte 0 937.3 0 89
2019-09-26 07:00:00 9.6 2 Sudeste 4 Sudeste 0 937 -0.2 89
2019-09-26 06:00:00 9.9 0 Calma 6 Sudeste 0 937.1 -0.3 85
2019-09-26 05:00:00 10.5 2 Sudoeste 8 Sur 0 937.3 -0.1 85
2019-09-26 04:00:00 11 0 Calma 4 Sur 0 937.2 -0.2 81
2019-09-26 03:00:00 11.5 0 Calma 5 Este 0 937.4 0 81
2019-09-26 02:00:00 12.7 3 Este 17 Nordeste 0 937.4 0.5 77
2019-09-26 01:00:00 13.4 3 Norte 10 Norte 0 937.4 0.7 73
2019-09-26 00:00:00 14.4 0 Calma 12 Norte 0 937.4 1.3 70
2019-09-25 23:00:00 15.7 4 Norte 19 Norte 0 936.9 1 65
2019-09-25 22:00:00 18 5 Oeste 17 Oeste 0 936.7 1.1 57
2019-09-25 21:00:00 19.5 7 Oeste 18 Oeste 0 936.1 0.2 51
2019-09-25 20:00:00 21.5 5 Sudoeste 12 Oeste 0 935.9 -0.3 41
2019-09-25 19:00:00 22.6 8 Sudoeste 22 Sudoeste 0 935.6 -0.9 36
2019-09-25 18:00:00 23.2 5 Sudoeste 20 Sudoeste 0 935.9 -1.1 33
2019-09-25 17:00:00 22.7 10 Sur 30 Sudeste 0 936.2 -1.3 33
2019-09-25 16:00:00 22 8 Sur 20 Sudoeste 0 936.5 -1.5 36
2019-09-25 15:00:00 20.8 9 Sudoeste 23 Oeste 0 937 -1.4 38
2019-09-25 14:00:00 20 8 Sudoeste 22 Sudoeste 0 937.5 -0.9 41
2019-09-25 13:00:00 18.3 10 Sudoeste 20 Sudoeste 0 938 -0.1 47
2019-09-25 12:00:00 17.2 5 Oeste 17 Oeste 0 938.4 1 52
2019-09-25 11:00:00 15.2 5 Oeste 15 Noroeste 0 938.4 1.5 58
2019-09-25 10:00:00 12.5 4 Sur 16 Oeste 0 938.1 1.2 67
2019-09-25 09:00:00 9.9 4 Sudoeste 12 Sudeste 0 937.4 0.7 77
2019-09-25 08:00:00 9.9 5 Oeste 14 Noroeste 0 936.9 0.2 75
2019-09-25 07:00:00 10.6 9 Oeste 17 Oeste 0 936.9 0 72
2019-09-25 06:00:00 10.9 8 Oeste 13 Oeste 0 936.7 -0.2 72
2019-09-25 05:00:00 11.2 6 Oeste 12 Oeste 0 936.7 -0.4 70
2019-09-25 04:00:00 11.4 8 Noroeste 16 Noroeste 0 936.9 0.1 69
2019-09-25 03:00:00 12.4 6 Oeste 14 Oeste 0 936.9 -0.2 66
2019-09-25 02:00:00 12.9 4 Oeste 12 Oeste 0 937.1 0.5 70
2019-09-25 01:00:00 13.7 4 Oeste 12 Oeste 0 936.8 0.5 69
2019-09-25 00:00:00 14 3 Noroeste 19 Oeste 0 937.1 1.5 68
2019-09-24 23:00:00 15.8 9 Oeste 22 Oeste 0 936.6 1.4 62
2019-09-24 22:00:00 17.1 11 Oeste 25 Oeste 0 936.3 1.4 57
2019-09-24 21:00:00 18.2 12 Oeste 26 Oeste 0 935.6 0.9 54
2019-09-24 20:00:00 19.9 12 Oeste 40 Oeste 0 935.2 0.4 50
2019-09-24 19:00:00 22.1 17 Oeste 39 Oeste 0 934.9 -0.3 41
2019-09-24 18:00:00 23.3 14 Oeste 40 Oeste 0 934.7 -0.8 38
2019-09-24 17:00:00 23.2 17 Oeste 44 Sudoeste 0 934.8 -1.3 41
2019-09-24 16:00:00 23.3 15 Oeste 51 Oeste 0 935.2 -1.1 42
2019-09-24 15:00:00 21.9 22 Sudoeste 49 Sudoeste 0 935.5 -0.9 52
2019-09-24 14:00:00 20.7 22 Sudoeste 46 Sudoeste 0 936.1 -0.2 60
2019-09-24 13:00:00 19.7 15 Sudoeste 48 Sudoeste 0 936.3 0.3 63
2019-09-24 12:00:00 18.4 14 Sudoeste 38 Sudoeste 0 936.4 0.5 67
2019-09-24 11:00:00 16.8 15 Sudoeste 36 Sudoeste 0 936.3 0.3 70
2019-09-24 10:00:00 15.3 16 Sudoeste 33 Sudoeste 0 936 0.4 74
2019-09-24 09:00:00 13.3 13 Sur 25 Sudoeste 0 935.9 0.3 82
2019-09-24 08:00:00 13.4 7 Sur 23 Sudoeste 0 936 -0.1 81
2019-09-24 07:00:00 13.4 7 Sudoeste 18 Sur 0 935.6 -0.8 81
2019-09-24 06:00:00 13 6 Sur 19 Sudoeste 0 935.6 -1.1 80
2019-09-24 05:00:00 13.6 12 Sudoeste 21 Sudoeste 0 936.1 -0.8 77
2019-09-24 04:00:00 13.3 10 Sudoeste 17 Oeste 0 936.4 -0.8 78
2019-09-24 03:00:00 14.5 5 Sudoeste 14 Sudoeste 0 936.7 -0.7 72
2019-09-24 02:00:00 14.4 4 Sudoeste 14 Oeste 0 936.9 -0.6 71
2019-09-24 01:00:00 15.3 8 Sudoeste 15 Sudoeste 0 937.2 -0.2 68
2019-09-24 00:00:00 16.2 9 Sudoeste 19 Sudoeste 0 937.4 0.3 63
2019-09-23 23:00:00 17.6 7 Sudoeste 14 Sudoeste 0 937.5 0.5 55
2019-09-23 22:00:00 18.1 6 Sudoeste 14 Oeste 0 937.4 0.9 52
2019-09-23 21:00:00 19.1 6 Sudoeste 17 Sudoeste 0 937.1 0.2 49
2019-09-23 20:00:00 20.4 8 Sudoeste 21 Sudoeste 0 937 0 45
2019-09-23 19:00:00 21.9 9 Sudoeste 22 Sudoeste 0 936.5 -0.8 41
2019-09-23 18:00:00 21.6 6 Sur 24 Sudoeste 0 936.9 -0.5 43
2019-09-23 17:00:00 21.3 10 Sudoeste 28 Sudoeste 0 937 -0.9 42
2019-09-23 16:00:00 21.5 13 Sudoeste 27 Sur 0 937.3 -1.1 38
2019-09-23 15:00:00 20.9 13 Sudoeste 32 Sur 0 937.4 -1.5 40
2019-09-23 14:00:00 19.2 13 Sudoeste 31 Sudoeste 0 937.9 -1 48
2019-09-23 13:00:00 16.9 12 Sudoeste 26 Sur 0 938.4 0.2 57
2019-09-23 12:00:00 15.3 6 Sudoeste 16 Sur 0 938.9 1.2 65
2019-09-23 11:00:00 12.9 5 Sudoeste 16 Oeste 0 938.9 1.3 77
2019-09-23 10:00:00 11.2 9 Sudoeste 17 Oeste 0 938.2 0.7 82
2019-09-23 09:00:00 10 4 Sur 12 Sudoeste 0 937.7 0.6 85
2019-09-23 08:00:00 10 6 Sudoeste 16 Sudoeste 0 937.6 1 85
2019-09-23 07:00:00 9.5 5 Sudoeste 12 Sudoeste 0 937.5 0.7 87
2019-09-23 06:00:00 9.6 4 Sur 7 Sur 0 937.1 0.6 86
2019-09-23 05:00:00 9.8 3 Sudeste 7 Noroeste 0 936.6 0.1 84
2019-09-23 04:00:00 11.4 5 Oeste 10 Sudoeste 0 936.8 0.5 79
2019-09-23 03:00:00 11.6 4 Oeste 12 Sudoeste 0 936.5 0.4 78
2019-09-23 02:00:00 12.4 5 Oeste 10 Noroeste 0 936.5 0.7 74
2019-09-23 01:00:00 13.1 5 Oeste 12 Oeste 0 936.3 1 69
2019-09-23 00:00:00 14 7 Sudoeste 14 Sudoeste 0 936.1 1.3 65
2019-09-22 23:00:00 14.9 6 Sudoeste 13 Oeste 0 935.8 1.8 60
2019-09-22 22:00:00 15.8 5 Oeste 19 Oeste 0 935.3 1.7 57
2019-09-22 21:00:00 16.8 7 Oeste 23 Sudoeste 0 934.8 1.5 51
2019-09-22 20:00:00 18.8 9 Sudoeste 26 Sudoeste 0 934 0.8 42
2019-09-22 19:00:00 20.5 7 Oeste 26 Oeste 0 933.6 0.4 35
2019-09-22 18:00:00 20.6 12 Sudoeste 23 Sudoeste 0 933.3 -0.1 32
2019-09-22 17:00:00 21 12 Sudoeste 31 Sudoeste 0 933.2 -0.2 29
2019-09-22 16:00:00 19.8 13 Sudoeste 35 Sudoeste 0 933.2 -0.4 33
2019-09-22 15:00:00 20.1 13 Sudoeste 30 Sudoeste 0 933.4 0 34
2019-09-22 14:00:00 18.6 12 Oeste 27 Oeste 0 933.4 0.2 43
2019-09-22 13:00:00 17 12 Oeste 30 Sudoeste 0 933.6 1.1 53
2019-09-22 12:00:00 16.5 12 Sudoeste 27 Oeste 0 933.4 1.5 60
2019-09-22 11:00:00 15.1 9 Oeste 26 Sudoeste 0 933.2 2.1 70
2019-09-22 10:00:00 13.7 9 Sudoeste 22 Sudoeste 0 932.5 1.9 81
2019-09-22 09:00:00 11.7 8 Sudoeste 19 Sudoeste 0 931.9 1.9 88
2019-09-22 08:00:00 11.2 8 Sudoeste 15 Sudoeste 0 931.1 1.3 89
2019-09-22 07:00:00 11 3 Sudoeste 12 Sudoeste 0 930.6 0.9 89
2019-09-22 06:00:00 11 6 Sur 15 Sudoeste 0 930 0.6 87
2019-09-22 05:00:00 11.9 9 Sudoeste 19 Sudoeste 0 929.8 1.2 83
2019-09-22 04:00:00 12.5 6 Oeste 25 Sudoeste 0 929.7 1.2 81
2019-09-22 03:00:00 13.3 11 Sudoeste 23 Sudoeste 0 929.4 1.3 77
2019-09-22 02:00:00 13.4 11 Sudoeste 22 Sudoeste 0 928.6 0.8 77
2019-09-22 01:00:00 13.8 6 Sudoeste 42 Oeste 0.2 928.5 0.6 80
2019-09-22 00:00:00 16.2 22 Sudoeste 46 Sudoeste 0 928.1 0.4 86
2019-09-21 23:00:00 16.3 14 Sur 32 Sudoeste 0.6 927.8 0.1 89
2019-09-21 22:00:00 16.7 11 Sur 22 Sudoeste 0.2 927.9 0.1 85
2019-09-21 21:00:00 16.6 7 Sur 28 Sur 0.2 927.7 -0.3 86
2019-09-21 20:00:00 17.2 14 Sur 40 Sudoeste 0.2 927.7 -0.4 81
2019-09-21 19:00:00 18.4 10 Sudoeste 40 Sudoeste 0 927.8 -0.7 73
2019-09-21 18:00:00 18.6 12 Sur 46 Sur 0 928 -1.1 73
2019-09-21 17:00:00 18.1 8 Sur 27 Sur 0 928.1 -1.4 78
2019-09-21 16:00:00 18.2 11 Sur 29 Sur 0 928.5 -1.3 78
2019-09-21 15:00:00 16.9 15 Sur 32 Sur 0 929.1 -1 85
2019-09-21 14:00:00 17.2 12 Sur 28 Sur 0 929.5 -0.6 82
2019-09-21 13:00:00 16.7 12 Sur 26 Sur 0.6 929.8 -0.2 86
2019-09-21 12:00:00 16.6 11 Sur 22 Sur 0.2 930.1 0.5 81
2019-09-21 11:00:00 16.4 10 Sur 22 Sudoeste 0.2 930.1 0.5 79
2019-09-21 10:00:00 17.1 9 Sur 19 Sur 0 930 0.3 69
2019-09-21 09:00:00 16 5 Sur 15 Sur 0 929.6 -0.4 73
2019-09-21 08:00:00 15.9 4 Sur 15 Sur 0 929.6 -0.5 75
2019-09-21 07:00:00 16 5 Sur 14 Sur 0 929.7 -0.5 73
2019-09-21 06:00:00 16 7 Sudoeste 18 Sudoeste 0 930 -0.6 72
2019-09-21 05:00:00 16.6 9 Sudoeste 25 Sur 0 930.1 -0.3 69
2019-09-21 04:00:00 17.4 8 Sudoeste 17 Sudoeste 0 930.2 -0.5 65
2019-09-21 03:00:00 17.8 9 Sudoeste 17 Sudoeste 0 930.6 -0.1 64
2019-09-21 02:00:00 17.9 4 Sur 10 Sur 0 930.4 -0.4 65
2019-09-21 01:00:00 19 5 Sur 13 Sudoeste 0 930.7 -0.1 61
2019-09-21 00:00:00 19.5 4 Sur 8 Sur 0 930.7 0.3 65
2019-09-20 23:00:00 19.3 3 Sudeste 13 Sudeste 0 930.8 0.9 64
2019-09-20 22:00:00 20.9 5 Sudeste 12 Sudeste 0 930.8 0.9 53
2019-09-20 21:00:00 22 6 Sudoeste 30 Sudoeste 0 930.4 0.5 47
2019-09-20 20:00:00 23.9 5 Sur 21 Oeste 0 929.9 -0.4 41
2019-09-20 19:00:00 24.7 12 Sudoeste 30 Sur 0 929.9 -1.2 34
2019-09-20 18:00:00 26 11 Sudoeste 30 Sudoeste 0 929.9 -1.8 28
2019-09-20 17:00:00 26.8 8 Sur 29 Sudoeste 0 930.3 -2.1 28
2019-09-20 16:00:00 27.2 13 Sur 29 Sur 0 931.1 -1.7 31
2019-09-20 15:00:00 25.2 9 Sudoeste 23 Sur 0 931.7 -1.7 39
2019-09-20 14:00:00 24.3 9 Sur 20 Sur 0 932.4 -1.1 44
2019-09-20 13:00:00 23.1 4 Sur 14 Sudoeste 0 932.8 -0.7 52
2019-09-20 12:00:00 20.7 5 Oeste 11 Este 0 933.4 0.1 63
2019-09-20 11:00:00 17.9 4 Nordeste 13 Norte 0 933.5 0.5 75
2019-09-20 10:00:00 16.5 6 Norte 13 Norte 0 933.5 0.5 77
2019-09-20 09:00:00 14.8 5 Norte 10 Noroeste 0 933.3 0 83
2019-09-20 08:00:00 14.2 4 Nordeste 14 Norte 0 933 -0.5 85
2019-09-20 07:00:00 14.5 5 Nordeste 14 Norte 0 933 -0.9 84
2019-09-20 06:00:00 14.9 5 Norte 13 Norte 0 933.3 -1 82
2019-09-20 05:00:00 15.2 9 Norte 22 Norte 0 933.5 -0.8 83
2019-09-20 04:00:00 15.5 7 Norte 15 Norte 0 933.9 -0.6 81
2019-09-20 03:00:00 16.3 5 Norte 12 Norte 0 934.3 -0.3 76
2019-09-20 02:00:00 16.6 6 Norte 10 Norte 0 934.3 -0.4 72
2019-09-20 01:00:00 17.4 6 Norte 13 Norte 0 934.5 0 65
2019-09-20 00:00:00 17.9 4 Norte 8 Norte 0 934.6 0.5 62
2019-09-19 23:00:00 18.2 4 Norte 7 Nordeste 0 934.7 1 68
2019-09-19 22:00:00 19.4 4 Norte 8 Nordeste 0 934.5 0.8 62
2019-09-19 21:00:00 21.3 3 Norte 5 Nordeste 0 934.1 0.2 55
2019-09-19 20:00:00 24.5 3 Nordeste 12 Nordeste 0 933.7 -0.6 42
2019-09-19 19:00:00 25.9 5 Este 12 Nordeste 0 933.7 -1.2 35
2019-09-19 18:00:00 25.7 5 Este 17 Nordeste 0 933.9 -1.6 36
2019-09-19 17:00:00 26.1 6 Este 17 Nordeste 0 934.3 -1.9 36
2019-09-19 16:00:00 26.2 8 Sudeste 24 Este 0 934.9 -1.7 35
2019-09-19 15:00:00 25.3 6 Sudeste 20 Sudeste 0 935.5 -1.5 36
2019-09-19 14:00:00 24.2 7 Sudeste 21 Sudeste 0 936.2 -0.9 34
2019-09-19 13:00:00 22.8 7 Este 18 Este 0 936.6 -0.4 42
2019-09-19 12:00:00 21.2 7 Este 15 Este 0 937 0.3 48
2019-09-19 11:00:00 19 6 Nordeste 15 Norte 0 937.1 0.6 64
2019-09-19 10:00:00 16.7 8 Norte 14 Nordeste 0 937 0.7 80
2019-09-19 09:00:00 14.7 4 Norte 10 Nordeste 0 936.7 0.4 88
2019-09-19 08:00:00 14.1 4 Norte 8 Norte 0 936.5 0 89
2019-09-19 07:00:00 14.4 4 Norte 9 Norte 0 936.3 -0.4 88
2019-09-19 06:00:00 15.3 6 Norte 13 Norte 0 936.3 -0.4 87
2019-09-19 05:00:00 15.9 5 Norte 13 Norte 0 936.5 0 86
2019-09-19 04:00:00 16.3 2 Noroeste 10 Este 0 936.7 0.2 85
2019-09-19 03:00:00 17.4 6 Nordeste 11 Nordeste 0 936.7 0.2 81
2019-09-19 02:00:00 17.6 5 Nordeste 13 Nordeste 0 936.5 0.3 80
2019-09-19 01:00:00 18 5 Nordeste 12 Nordeste 0 936.5 0.4 78
2019-09-19 00:00:00 17.7 4 Norte 16 Este 0 936.5 0.8 77